sensor_id;sensor_type;location;lat;lon;timestamp;P1;durP1;ratioP1;P2;durP2;ratioP2
10489;SDS011;35569;48.402;10.670;2022-12-16T00:00:09;12.50;;;11.47;;
10489;SDS011;35569;48.402;10.670;2022-12-16T00:00:42;11.53;;;10.53;;
10489;SDS011;35569;48.402;10.670;2022-12-16T00:01:15;11.70;;;10.53;;
10489;SDS011;35569;48.402;10.670;2022-12-16T00:01:53;10.97;;;10.07;;
10489;SDS011;35569;48.402;10.670;2022-12-16T00:02:25;12.30;;;11.30;;
10489;SDS011;35569;48.402;10.670;2022-12-16T00:02:58;11.53;;;10.53;;
10489;SDS011;35569;48.402;10.670;2022-12-16T00:03:34;11.57;;;10.67;;
10489;SDS011;35569;48.402;10.670;2022-12-16T00:04:07;11.30;;;10.40;;
10489;SDS011;35569;48.402;10.670;2022-12-16T00:04:39;10.80;;;10.10;;
10489;SDS011;35569;48.402;10.670;2022-12-16T00:05:14;10.80;;;10.00;;
10489;SDS011;35569;48.402;10.670;2022-12-16T00:05:47;12.10;;;11.17;;
10489;SDS011;35569;48.402;10.670;2022-12-16T00:06:20;11.60;;;10.77;;
10489;SDS011;35569;48.402;10.670;2022-12-16T00:06:55;11.17;;;10.37;;
10489;SDS011;35569;48.402;10.670;2022-12-16T00:07:30;11.30;;;10.47;;
10489;SDS011;35569;48.402;10.670;2022-12-16T00:08:02;11.80;;;10.70;;
10489;SDS011;35569;48.402;10.670;2022-12-16T00:08:38;11.60;;;10.70;;
10489;SDS011;35569;48.402;10.670;2022-12-16T00:09:10;12.93;;;11.90;;
10489;SDS011;35569;48.402;10.670;2022-12-16T00:09:45;11.53;;;10.63;;
10489;SDS011;35569;48.402;10.670;2022-12-16T00:10:18;11.37;;;10.57;;
10489;SDS011;35569;48.402;10.670;2022-12-16T00:10:50;11.50;;;10.70;;
10489;SDS011;35569;48.402;10.670;2022-12-16T00:11:30;12.07;;;11.18;;
10489;SDS011;35569;48.402;10.670;2022-12-16T00:12:03;11.77;;;10.90;;
10489;SDS011;35569;48.402;10.670;2022-12-16T00:12:36;10.80;;;10.00;;
10489;SDS011;35569;48.402;10.670;2022-12-16T00:13:11;10.73;;;10.03;;
10489;SDS011;35569;48.402;10.670;2022-12-16T00:13:43;10.73;;;10.03;;
10489;SDS011;35569;48.402;10.670;2022-12-16T00:14:15;11.33;;;10.53;;
10489;SDS011;35569;48.402;10.670;2022-12-16T00:14:50;11.80;;;11.00;;
10489;SDS011;35569;48.402;10.670;2022-12-16T00:15:25;10.60;;;9.90;;
10489;SDS011;35569;48.402;10.670;2022-12-16T00:15:57;11.23;;;10.40;;
10489;SDS011;35569;48.402;10.670;2022-12-16T00:16:32;10.47;;;9.67;;
10489;SDS011;35569;48.402;10.670;2022-12-16T00:17:05;11.52;;;10.77;;
10489;SDS011;35569;48.402;10.670;2022-12-16T00:17:37;12.27;;;11.27;;
10489;SDS011;35569;48.402;10.670;2022-12-16T00:18:13;12.33;;;11.33;;
10489;SDS011;35569;48.402;10.670;2022-12-16T00:18:45;11.80;;;10.80;;
10489;SDS011;35569;48.402;10.670;2022-12-16T00:19:18;11.50;;;10.70;;
10489;SDS011;35569;48.402;10.670;2022-12-16T00:19:53;10.53;;;9.83;;
10489;SDS011;35569;48.402;10.670;2022-12-16T00:20:25;11.27;;;10.37;;
10489;SDS011;35569;48.402;10.670;2022-12-16T00:20:57;11.40;;;10.40;;
10489;SDS011;35569;48.402;10.670;2022-12-16T00:21:33;11.60;;;10.70;;
10489;SDS011;35569;48.402;10.670;2022-12-16T00:22:05;10.23;;;9.57;;
10489;SDS011;35569;48.402;10.670;2022-12-16T00:22:40;11.80;;;10.83;;
10489;SDS011;35569;48.402;10.670;2022-12-16T00:23:14;11.77;;;10.97;;
10489;SDS011;35569;48.402;10.670;2022-12-16T00:23:47;11.27;;;10.25;;
10489;SDS011;35569;48.402;10.670;2022-12-16T00:24:19;10.83;;;10.03;;
10489;SDS011;35569;48.402;10.670;2022-12-16T00:24:54;11.77;;;10.87;;
10489;SDS011;35569;48.402;10.670;2022-12-16T00:25:26;10.77;;;10.00;;
10489;SDS011;35569;48.402;10.670;2022-12-16T00:25:58;11.40;;;10.60;;
10489;SDS011;35569;48.402;10.670;2022-12-16T00:26:33;12.25;;;11.23;;
10489;SDS011;35569;48.402;10.670;2022-12-16T00:27:06;11.27;;;10.43;;
10489;SDS011;35569;48.402;10.670;2022-12-16T00:27:39;12.03;;;11.00;;
10489;SDS011;35569;48.402;10.670;2022-12-16T00:28:14;11.70;;;10.80;;
10489;SDS011;35569;48.402;10.670;2022-12-16T00:28:47;11.75;;;10.85;;
10489;SDS011;35569;48.402;10.670;2022-12-16T00:29:22;12.57;;;11.67;;
10489;SDS011;35569;48.402;10.670;2022-12-16T00:29:57;11.97;;;11.03;;
10489;SDS011;35569;48.402;10.670;2022-12-16T00:30:30;11.20;;;10.50;;
10489;SDS011;35569;48.402;10.670;2022-12-16T00:31:02;11.83;;;10.77;;
10489;SDS011;35569;48.402;10.670;2022-12-16T00:31:38;11.43;;;10.60;;
10489;SDS011;35569;48.402;10.670;2022-12-16T00:32:10;12.03;;;11.03;;
10489;SDS011;35569;48.402;10.670;2022-12-16T00:32:42;12.40;;;11.50;;
10489;SDS011;35569;48.402;10.670;2022-12-16T00:33:17;12.10;;;11.10;;
10489;SDS011;35569;48.402;10.670;2022-12-16T00:33:54;12.40;;;11.47;;
10489;SDS011;35569;48.402;10.670;2022-12-16T00:34:27;11.83;;;10.93;;
10489;SDS011;35569;48.402;10.670;2022-12-16T00:35:02;12.10;;;11.10;;
10489;SDS011;35569;48.402;10.670;2022-12-16T00:35:35;12.53;;;11.53;;
10489;SDS011;35569;48.402;10.670;2022-12-16T00:36:13;13.93;;;12.67;;
10489;SDS011;35569;48.402;10.670;2022-12-16T00:36:48;11.90;;;11.00;;
10489;SDS011;35569;48.402;10.670;2022-12-16T00:37:20;12.00;;;11.02;;
10489;SDS011;35569;48.402;10.670;2022-12-16T00:37:55;12.33;;;11.33;;
10489;SDS011;35569;48.402;10.670;2022-12-16T00:38:30;12.30;;;11.30;;
10489;SDS011;35569;48.402;10.670;2022-12-16T00:39:03;12.73;;;11.60;;
10489;SDS011;35569;48.402;10.670;2022-12-16T00:39:38;12.63;;;11.67;;
10489;SDS011;35569;48.402;10.670;2022-12-16T00:40:11;12.73;;;11.80;;
10489;SDS011;35569;48.402;10.670;2022-12-16T00:40:43;13.07;;;11.87;;
10489;SDS011;35569;48.402;10.670;2022-12-16T00:41:18;13.03;;;11.93;;
10489;SDS011;35569;48.402;10.670;2022-12-16T00:41:50;12.27;;;11.27;;
10489;SDS011;35569;48.402;10.670;2022-12-16T00:42:22;12.87;;;11.77;;
10489;SDS011;35569;48.402;10.670;2022-12-16T00:42:57;12.07;;;11.17;;
10489;SDS011;35569;48.402;10.670;2022-12-16T00:43:29;12.20;;;11.10;;
10489;SDS011;35569;48.402;10.670;2022-12-16T00:44:02;13.73;;;12.63;;
10489;SDS011;35569;48.402;10.670;2022-12-16T00:44:38;13.33;;;12.33;;
10489;SDS011;35569;48.402;10.670;2022-12-16T00:45:11;12.27;;;11.33;;
10489;SDS011;35569;48.402;10.670;2022-12-16T00:45:44;12.73;;;11.73;;
10489;SDS011;35569;48.402;10.670;2022-12-16T00:46:19;12.97;;;11.87;;
10489;SDS011;35569;48.402;10.670;2022-12-16T00:46:51;12.90;;;11.90;;
10489;SDS011;35569;48.402;10.670;2022-12-16T00:47:25;12.17;;;11.17;;
10489;SDS011;35569;48.402;10.670;2022-12-16T00:48:00;13.30;;;12.27;;
10489;SDS011;35569;48.402;10.670;2022-12-16T00:48:32;12.20;;;11.27;;
10489;SDS011;35569;48.402;10.670;2022-12-16T00:49:04;12.80;;;11.80;;
10489;SDS011;35569;48.402;10.670;2022-12-16T00:49:39;13.00;;;11.97;;
10489;SDS011;35569;48.402;10.670;2022-12-16T00:50:12;12.43;;;11.33;;
10489;SDS011;35569;48.402;10.670;2022-12-16T00:50:45;12.13;;;11.23;;
10489;SDS011;35569;48.402;10.670;2022-12-16T00:51:22;12.33;;;11.47;;
10489;SDS011;35569;48.402;10.670;2022-12-16T00:51:57;12.40;;;11.50;;
10489;SDS011;35569;48.402;10.670;2022-12-16T00:52:29;12.00;;;11.00;;
10489;SDS011;35569;48.402;10.670;2022-12-16T00:53:04;12.37;;;11.30;;
10489;SDS011;35569;48.402;10.670;2022-12-16T00:53:39;12.50;;;11.40;;
10489;SDS011;35569;48.402;10.670;2022-12-16T00:54:12;12.30;;;11.30;;
10489;SDS011;35569;48.402;10.670;2022-12-16T00:54:44;12.73;;;11.60;;
10489;SDS011;35569;48.402;10.670;2022-12-16T00:55:19;12.90;;;11.70;;
10489;SDS011;35569;48.402;10.670;2022-12-16T00:55:51;12.13;;;11.20;;
10489;SDS011;35569;48.402;10.670;2022-12-16T00:56:32;12.07;;;11.10;;
10489;SDS011;35569;48.402;10.670;2022-12-16T00:57:07;11.80;;;10.80;;
10489;SDS011;35569;48.402;10.670;2022-12-16T00:57:39;11.80;;;11.00;;
10489;SDS011;35569;48.402;10.670;2022-12-16T00:58:12;12.97;;;11.87;;
10489;SDS011;35569;48.402;10.670;2022-12-16T00:58:47;12.07;;;11.20;;
10489;SDS011;35569;48.402;10.670;2022-12-16T00:59:20;10.60;;;9.80;;
10489;SDS011;35569;48.402;10.670;2022-12-16T00:59:55;11.55;;;10.75;;
10489;SDS011;35569;48.402;10.670;2022-12-16T01:00:27;12.70;;;11.60;;
10489;SDS011;35569;48.402;10.670;2022-12-16T01:01:00;11.97;;;11.10;;
10489;SDS011;35569;48.402;10.670;2022-12-16T01:01:36;12.10;;;11.23;;
10489;SDS011;35569;48.402;10.670;2022-12-16T01:02:08;12.13;;;11.23;;
10489;SDS011;35569;48.402;10.670;2022-12-16T01:02:42;12.00;;;10.97;;
10489;SDS011;35569;48.402;10.670;2022-12-16T01:03:18;12.20;;;11.03;;
10489;SDS011;35569;48.402;10.670;2022-12-16T01:03:54;11.43;;;10.53;;
10489;SDS011;35569;48.402;10.670;2022-12-16T01:04:27;11.20;;;10.40;;
10489;SDS011;35569;48.402;10.670;2022-12-16T01:05:02;12.03;;;11.03;;
10489;SDS011;35569;48.402;10.670;2022-12-16T01:05:36;11.20;;;10.40;;
10489;SDS011;35569;48.402;10.670;2022-12-16T01:06:12;11.20;;;10.43;;
10489;SDS011;35569;48.402;10.670;2022-12-16T01:06:45;13.00;;;11.80;;
10489;SDS011;35569;48.402;10.670;2022-12-16T01:07:20;11.80;;;11.00;;
10489;SDS011;35569;48.402;10.670;2022-12-16T01:07:53;11.43;;;10.57;;
10489;SDS011;35569;48.402;10.670;2022-12-16T01:08:28;11.57;;;10.67;;
10489;SDS011;35569;48.402;10.670;2022-12-16T01:09:03;12.10;;;11.23;;
10489;SDS011;35569;48.402;10.670;2022-12-16T01:09:36;12.23;;;11.30;;
10489;SDS011;35569;48.402;10.670;2022-12-16T01:10:08;11.83;;;11.00;;
10489;SDS011;35569;48.402;10.670;2022-12-16T01:10:48;11.47;;;10.60;;
10489;SDS011;35569;48.402;10.670;2022-12-16T01:11:22;11.57;;;10.77;;
10489;SDS011;35569;48.402;10.670;2022-12-16T01:11:57;12.57;;;11.53;;
10489;SDS011;35569;48.402;10.670;2022-12-16T01:12:29;12.33;;;11.30;;
10489;SDS011;35569;48.402;10.670;2022-12-16T01:13:01;12.50;;;11.50;;
10489;SDS011;35569;48.402;10.670;2022-12-16T01:13:36;11.90;;;11.10;;
10489;SDS011;35569;48.402;10.670;2022-12-16T01:14:09;11.63;;;10.80;;
10489;SDS011;35569;48.402;10.670;2022-12-16T01:14:43;12.37;;;11.47;;
10489;SDS011;35569;48.402;10.670;2022-12-16T01:15:16;11.90;;;11.10;;
10489;SDS011;35569;48.402;10.670;2022-12-16T01:15:49;11.63;;;10.60;;
10489;SDS011;35569;48.402;10.670;2022-12-16T01:16:24;12.70;;;11.67;;
10489;SDS011;35569;48.402;10.670;2022-12-16T01:16:56;12.57;;;11.27;;
10489;SDS011;35569;48.402;10.670;2022-12-16T01:17:28;11.30;;;10.50;;
10489;SDS011;35569;48.402;10.670;2022-12-16T01:18:03;11.17;;;10.37;;
10489;SDS011;35569;48.402;10.670;2022-12-16T01:18:35;12.20;;;11.27;;
10489;SDS011;35569;48.402;10.670;2022-12-16T01:19:08;12.17;;;11.37;;
10489;SDS011;35569;48.402;10.670;2022-12-16T01:19:43;11.77;;;10.87;;
10489;SDS011;35569;48.402;10.670;2022-12-16T01:20:15;11.70;;;10.77;;
10489;SDS011;35569;48.402;10.670;2022-12-16T01:20:47;11.90;;;10.90;;
10489;SDS011;35569;48.402;10.670;2022-12-16T01:21:25;11.63;;;10.83;;
10489;SDS011;35569;48.402;10.670;2022-12-16T01:21:57;10.87;;;10.03;;
10489;SDS011;35569;48.402;10.670;2022-12-16T01:22:29;10.73;;;10.03;;
10489;SDS011;35569;48.402;10.670;2022-12-16T01:23:05;11.50;;;10.70;;
10489;SDS011;35569;48.402;10.670;2022-12-16T01:23:41;11.23;;;10.37;;
10489;SDS011;35569;48.402;10.670;2022-12-16T01:24:16;12.67;;;11.67;;
10489;SDS011;35569;48.402;10.670;2022-12-16T01:24:48;11.00;;;10.20;;
10489;SDS011;35569;48.402;10.670;2022-12-16T01:25:20;11.73;;;10.93;;
10489;SDS011;35569;48.402;10.670;2022-12-16T01:25:56;11.73;;;10.93;;
10489;SDS011;35569;48.402;10.670;2022-12-16T01:26:29;12.40;;;11.32;;
10489;SDS011;35569;48.402;10.670;2022-12-16T01:27:02;11.23;;;10.45;;
10489;SDS011;35569;48.402;10.670;2022-12-16T01:27:37;10.70;;;10.00;;
10489;SDS011;35569;48.402;10.670;2022-12-16T01:28:09;11.15;;;10.27;;
10489;SDS011;35569;48.402;10.670;2022-12-16T01:28:42;11.20;;;10.30;;
10489;SDS011;35569;48.402;10.670;2022-12-16T01:29:17;13.07;;;11.97;;
10489;SDS011;35569;48.402;10.670;2022-12-16T01:29:49;10.83;;;10.03;;
10489;SDS011;35569;48.402;10.670;2022-12-16T01:30:22;11.00;;;10.20;;
10489;SDS011;35569;48.402;10.670;2022-12-16T01:30:58;11.60;;;10.80;;
10489;SDS011;35569;48.402;10.670;2022-12-16T01:31:32;11.40;;;10.60;;
10489;SDS011;35569;48.402;10.670;2022-12-16T01:32:08;10.90;;;10.10;;
10489;SDS011;35569;48.402;10.670;2022-12-16T01:32:43;12.33;;;11.33;;
10489;SDS011;35569;48.402;10.670;2022-12-16T01:33:15;11.43;;;10.63;;
10489;SDS011;35569;48.402;10.670;2022-12-16T01:33:50;12.00;;;10.90;;
10489;SDS011;35569;48.402;10.670;2022-12-16T01:34:23;11.25;;;10.45;;
10489;SDS011;35569;48.402;10.670;2022-12-16T01:34:55;11.63;;;10.70;;
10489;SDS011;35569;48.402;10.670;2022-12-16T01:35:30;12.03;;;11.13;;
10489;SDS011;35569;48.402;10.670;2022-12-16T01:36:22;11.50;;;10.70;;
10489;SDS011;35569;48.402;10.670;2022-12-16T01:36:57;11.80;;;11.00;;
10489;SDS011;35569;48.402;10.670;2022-12-16T01:37:30;12.50;;;11.50;;
10489;SDS011;35569;48.402;10.670;2022-12-16T01:38:05;11.90;;;10.90;;
10489;SDS011;35569;48.402;10.670;2022-12-16T01:38:41;13.17;;;11.97;;
10489;SDS011;35569;48.402;10.670;2022-12-16T01:39:14;11.43;;;10.63;;
10489;SDS011;35569;48.402;10.670;2022-12-16T01:39:49;11.57;;;10.77;;
10489;SDS011;35569;48.402;10.670;2022-12-16T01:40:22;12.63;;;11.60;;
10489;SDS011;35569;48.402;10.670;2022-12-16T01:40:56;11.50;;;10.60;;
10489;SDS011;35569;48.402;10.670;2022-12-16T01:41:31;12.20;;;11.20;;
10489;SDS011;35569;48.402;10.670;2022-12-16T01:42:04;11.60;;;10.70;;
10489;SDS011;35569;48.402;10.670;2022-12-16T01:42:36;10.90;;;10.10;;
10489;SDS011;35569;48.402;10.670;2022-12-16T01:43:11;11.23;;;10.43;;
10489;SDS011;35569;48.402;10.670;2022-12-16T01:43:45;11.45;;;10.55;;
10489;SDS011;35569;48.402;10.670;2022-12-16T01:44:21;11.53;;;10.63;;
10489;SDS011;35569;48.402;10.670;2022-12-16T01:44:54;12.93;;;11.63;;
10489;SDS011;35569;48.402;10.670;2022-12-16T01:45:29;11.23;;;10.35;;
10489;SDS011;35569;48.402;10.670;2022-12-16T01:46:06;10.80;;;10.03;;
10489;SDS011;35569;48.402;10.670;2022-12-16T01:46:41;11.10;;;10.30;;
10489;SDS011;35569;48.402;10.670;2022-12-16T01:47:15;11.60;;;10.70;;
10489;SDS011;35569;48.402;10.670;2022-12-16T01:47:51;12.27;;;11.27;;
10489;SDS011;35569;48.402;10.670;2022-12-16T01:48:31;12.20;;;11.20;;
10489;SDS011;35569;48.402;10.670;2022-12-16T01:49:07;11.63;;;10.63;;
10489;SDS011;35569;48.402;10.670;2022-12-16T01:49:45;11.80;;;11.00;;
10489;SDS011;35569;48.402;10.670;2022-12-16T01:50:20;11.73;;;10.83;;
10489;SDS011;35569;48.402;10.670;2022-12-16T01:50:53;11.63;;;10.83;;
10489;SDS011;35569;48.402;10.670;2022-12-16T01:51:33;11.37;;;10.53;;
10489;SDS011;35569;48.402;10.670;2022-12-16T01:52:08;11.73;;;10.73;;
10489;SDS011;35569;48.402;10.670;2022-12-16T01:52:47;11.50;;;10.70;;
10489;SDS011;35569;48.402;10.670;2022-12-16T01:53:22;11.15;;;10.07;;
10489;SDS011;35569;48.402;10.670;2022-12-16T01:53:59;11.43;;;10.50;;
10489;SDS011;35569;48.402;10.670;2022-12-16T01:54:38;11.27;;;10.40;;
10489;SDS011;35569;48.402;10.670;2022-12-16T01:55:11;11.43;;;10.53;;
10489;SDS011;35569;48.402;10.670;2022-12-16T01:55:47;10.50;;;9.80;;
10489;SDS011;35569;48.402;10.670;2022-12-16T01:56:23;10.57;;;9.73;;
10489;SDS011;35569;48.402;10.670;2022-12-16T01:56:58;11.43;;;10.53;;
10489;SDS011;35569;48.402;10.670;2022-12-16T01:57:35;10.43;;;9.73;;
10489;SDS011;35569;48.402;10.670;2022-12-16T01:58:13;10.60;;;9.80;;
10489;SDS011;35569;48.402;10.670;2022-12-16T01:58:46;9.90;;;9.30;;
10489;SDS011;35569;48.402;10.670;2022-12-16T01:59:22;10.83;;;9.97;;
10489;SDS011;35569;48.402;10.670;2022-12-16T01:59:55;10.33;;;9.60;;
10489;SDS011;35569;48.402;10.670;2022-12-16T02:00:28;10.33;;;9.63;;
10489;SDS011;35569;48.402;10.670;2022-12-16T02:01:03;11.00;;;10.10;;
10489;SDS011;35569;48.402;10.670;2022-12-16T02:01:36;10.93;;;10.03;;
10489;SDS011;35569;48.402;10.670;2022-12-16T02:02:11;11.30;;;10.40;;
10489;SDS011;35569;48.402;10.670;2022-12-16T02:02:44;11.63;;;10.63;;
10489;SDS011;35569;48.402;10.670;2022-12-16T02:03:20;11.38;;;10.45;;
10489;SDS011;35569;48.402;10.670;2022-12-16T02:03:55;11.53;;;10.73;;
10489;SDS011;35569;48.402;10.670;2022-12-16T02:04:29;11.73;;;10.83;;
10489;SDS011;35569;48.402;10.670;2022-12-16T02:05:02;10.30;;;9.60;;
10489;SDS011;35569;48.402;10.670;2022-12-16T02:05:49;10.45;;;9.68;;
10489;SDS011;35569;48.402;10.670;2022-12-16T02:06:26;11.00;;;10.20;;
10489;SDS011;35569;48.402;10.670;2022-12-16T02:06:58;10.20;;;9.55;;
10489;SDS011;35569;48.402;10.670;2022-12-16T02:07:31;11.80;;;10.80;;
10489;SDS011;35569;48.402;10.670;2022-12-16T02:08:09;10.60;;;9.90;;
10489;SDS011;35569;48.402;10.670;2022-12-16T02:08:42;11.30;;;10.27;;
10489;SDS011;35569;48.402;10.670;2022-12-16T02:09:17;11.20;;;10.33;;
10489;SDS011;35569;48.402;10.670;2022-12-16T02:09:52;10.37;;;9.57;;
10489;SDS011;35569;48.402;10.670;2022-12-16T02:10:26;10.90;;;10.20;;
10489;SDS011;35569;48.402;10.670;2022-12-16T02:11:10;11.27;;;10.37;;
10489;SDS011;35569;48.402;10.670;2022-12-16T02:12:07;11.07;;;10.10;;
10489;SDS011;35569;48.402;10.670;2022-12-16T02:12:48;10.50;;;9.80;;
10489;SDS011;35569;48.402;10.670;2022-12-16T02:13:30;10.05;;;9.35;;
10489;SDS011;35569;48.402;10.670;2022-12-16T02:14:13;10.17;;;9.37;;
10489;SDS011;35569;48.402;10.670;2022-12-16T02:15:07;9.57;;;8.93;;
10489;SDS011;35569;48.402;10.670;2022-12-16T02:15:54;10.97;;;10.20;;
10489;SDS011;35569;48.402;10.670;2022-12-16T02:16:33;10.50;;;9.70;;
10489;SDS011;35569;48.402;10.670;2022-12-16T02:17:11;11.07;;;10.25;;
10489;SDS011;35569;48.402;10.670;2022-12-16T02:17:50;11.10;;;10.30;;
10489;SDS011;35569;48.402;10.670;2022-12-16T02:18:28;10.70;;;9.70;;
10489;SDS011;35569;48.402;10.670;2022-12-16T02:19:15;10.57;;;9.87;;
10489;SDS011;35569;48.402;10.670;2022-12-16T02:20:19;10.60;;;9.80;;
10489;SDS011;35569;48.402;10.670;2022-12-16T02:21:09;8.90;;;8.40;;
10489;SDS011;35569;48.402;10.670;2022-12-16T02:21:46;10.40;;;9.60;;
10489;SDS011;35569;48.402;10.670;2022-12-16T02:22:26;10.37;;;9.63;;
10489;SDS011;35569;48.402;10.670;2022-12-16T02:23:15;11.03;;;10.20;;
10489;SDS011;35569;48.402;10.670;2022-12-16T02:25:28;10.60;;;9.80;;
10489;SDS011;35569;48.402;10.670;2022-12-16T02:28:30;10.15;;;9.20;;
10489;SDS011;35569;48.402;10.670;2022-12-16T02:29:16;9.65;;;9.05;;
10489;SDS011;35569;48.402;10.670;2022-12-16T02:31:15;10.13;;;9.33;;
10489;SDS011;35569;48.402;10.670;2022-12-16T02:31:51;10.60;;;9.70;;
10489;SDS011;35569;48.402;10.670;2022-12-16T02:32:29;9.75;;;9.05;;
10489;SDS011;35569;48.402;10.670;2022-12-16T02:33:09;10.70;;;9.83;;
10489;SDS011;35569;48.402;10.670;2022-12-16T02:34:02;10.07;;;9.48;;
10489;SDS011;35569;48.402;10.670;2022-12-16T02:34:47;11.23;;;10.43;;
10489;SDS011;35569;48.402;10.670;2022-12-16T02:35:27;10.70;;;9.80;;
10489;SDS011;35569;48.402;10.670;2022-12-16T02:36:05;11.32;;;10.32;;
10489;SDS011;35569;48.402;10.670;2022-12-16T02:36:48;10.75;;;9.95;;
10489;SDS011;35569;48.402;10.670;2022-12-16T02:37:30;10.00;;;9.20;;
10489;SDS011;35569;48.402;10.670;2022-12-16T02:38:08;11.38;;;10.38;;
10489;SDS011;35569;48.402;10.670;2022-12-16T02:38:48;10.13;;;9.40;;
10489;SDS011;35569;48.402;10.670;2022-12-16T02:39:27;10.87;;;9.97;;
10489;SDS011;35569;48.402;10.670;2022-12-16T02:40:05;11.45;;;10.40;;
10489;SDS011;35569;48.402;10.670;2022-12-16T02:40:45;10.10;;;9.40;;
10489;SDS011;35569;48.402;10.670;2022-12-16T02:41:21;10.80;;;9.90;;
10489;SDS011;35569;48.402;10.670;2022-12-16T02:41:58;10.23;;;9.50;;
10489;SDS011;35569;48.402;10.670;2022-12-16T02:42:37;9.77;;;9.03;;
10489;SDS011;35569;48.402;10.670;2022-12-16T02:43:14;10.07;;;9.27;;
10489;SDS011;35569;48.402;10.670;2022-12-16T02:43:51;10.07;;;9.18;;
10489;SDS011;35569;48.402;10.670;2022-12-16T02:44:28;10.23;;;9.53;;
10489;SDS011;35569;48.402;10.670;2022-12-16T02:45:07;10.10;;;9.30;;
10489;SDS011;35569;48.402;10.670;2022-12-16T02:45:47;11.13;;;10.07;;
10489;SDS011;35569;48.402;10.670;2022-12-16T02:46:20;10.00;;;9.20;;
10489;SDS011;35569;48.402;10.670;2022-12-16T02:46:54;10.50;;;9.60;;
10489;SDS011;35569;48.402;10.670;2022-12-16T02:47:29;9.55;;;8.95;;
10489;SDS011;35569;48.402;10.670;2022-12-16T02:48:02;10.13;;;9.33;;
10489;SDS011;35569;48.402;10.670;2022-12-16T02:48:35;9.70;;;9.00;;
10489;SDS011;35569;48.402;10.670;2022-12-16T02:50:31;10.13;;;9.37;;
10489;SDS011;35569;48.402;10.670;2022-12-16T02:51:06;9.50;;;8.73;;
10489;SDS011;35569;48.402;10.670;2022-12-16T02:51:38;10.70;;;9.90;;
10489;SDS011;35569;48.402;10.670;2022-12-16T02:52:13;9.97;;;9.07;;
10489;SDS011;35569;48.402;10.670;2022-12-16T02:52:45;10.00;;;9.30;;
10489;SDS011;35569;48.402;10.670;2022-12-16T02:53:18;10.50;;;9.70;;
10489;SDS011;35569;48.402;10.670;2022-12-16T02:53:53;10.13;;;9.40;;
10489;SDS011;35569;48.402;10.670;2022-12-16T02:54:26;10.47;;;9.67;;
10489;SDS011;35569;48.402;10.670;2022-12-16T02:55:00;9.90;;;9.30;;
10489;SDS011;35569;48.402;10.670;2022-12-16T02:55:40;10.10;;;9.23;;
10489;SDS011;35569;48.402;10.670;2022-12-16T02:56:22;8.83;;;8.30;;
10489;SDS011;35569;48.402;10.670;2022-12-16T02:57:05;9.70;;;8.90;;
10489;SDS011;35569;48.402;10.670;2022-12-16T02:57:54;9.77;;;9.00;;
10489;SDS011;35569;48.402;10.670;2022-12-16T02:58:44;9.95;;;9.15;;
10489;SDS011;35569;48.402;10.670;2022-12-16T02:59:21;10.10;;;9.50;;
10489;SDS011;35569;48.402;10.670;2022-12-16T02:59:58;9.97;;;9.03;;
10489;SDS011;35569;48.402;10.670;2022-12-16T03:00:39;9.70;;;8.98;;
10489;SDS011;35569;48.402;10.670;2022-12-16T03:01:18;10.93;;;10.05;;
10489;SDS011;35569;48.402;10.670;2022-12-16T03:01:59;10.10;;;9.27;;
10489;SDS011;35569;48.402;10.670;2022-12-16T03:02:40;9.48;;;8.88;;
10489;SDS011;35569;48.402;10.670;2022-12-16T03:03:17;9.85;;;8.85;;
10489;SDS011;35569;48.402;10.670;2022-12-16T03:03:55;10.20;;;9.43;;
10489;SDS011;35569;48.402;10.670;2022-12-16T03:04:30;9.53;;;8.93;;
10489;SDS011;35569;48.402;10.670;2022-12-16T03:05:11;10.20;;;9.48;;
10489;SDS011;35569;48.402;10.670;2022-12-16T03:05:47;10.33;;;9.50;;
10489;SDS011;35569;48.402;10.670;2022-12-16T03:06:20;10.38;;;9.68;;
10489;SDS011;35569;48.402;10.670;2022-12-16T03:06:55;9.73;;;9.13;;
10489;SDS011;35569;48.402;10.670;2022-12-16T03:07:29;10.23;;;9.43;;
10489;SDS011;35569;48.402;10.670;2022-12-16T03:08:04;10.50;;;9.70;;
10489;SDS011;35569;48.402;10.670;2022-12-16T03:08:41;11.20;;;10.38;;
10489;SDS011;35569;48.402;10.670;2022-12-16T03:09:17;10.23;;;9.43;;
10489;SDS011;35569;48.402;10.670;2022-12-16T03:09:53;10.02;;;9.43;;
10489;SDS011;35569;48.402;10.670;2022-12-16T03:10:29;10.23;;;9.53;;
10489;SDS011;35569;48.402;10.670;2022-12-16T03:11:05;10.10;;;9.40;;
10489;SDS011;35569;48.402;10.670;2022-12-16T03:11:38;10.83;;;9.93;;
10489;SDS011;35569;48.402;10.670;2022-12-16T03:12:16;10.47;;;9.70;;
10489;SDS011;35569;48.402;10.670;2022-12-16T03:12:49;10.00;;;9.20;;
10489;SDS011;35569;48.402;10.670;2022-12-16T03:13:22;10.20;;;9.50;;
10489;SDS011;35569;48.402;10.670;2022-12-16T03:13:57;10.32;;;9.55;;
10489;SDS011;35569;48.402;10.670;2022-12-16T03:14:31;10.32;;;9.60;;
10489;SDS011;35569;48.402;10.670;2022-12-16T03:15:05;10.10;;;9.30;;
10489;SDS011;35569;48.402;10.670;2022-12-16T03:15:41;11.10;;;10.30;;
10489;SDS011;35569;48.402;10.670;2022-12-16T03:16:18;9.83;;;9.23;;
10489;SDS011;35569;48.402;10.670;2022-12-16T03:16:54;10.52;;;9.73;;
10489;SDS011;35569;48.402;10.670;2022-12-16T03:17:27;10.27;;;9.57;;
10489;SDS011;35569;48.402;10.670;2022-12-16T03:18:00;10.17;;;9.57;;
10489;SDS011;35569;48.402;10.670;2022-12-16T03:18:35;9.20;;;8.57;;
10489;SDS011;35569;48.402;10.670;2022-12-16T03:19:11;10.18;;;9.48;;
10489;SDS011;35569;48.402;10.670;2022-12-16T03:19:47;8.93;;;8.43;;
10489;SDS011;35569;48.402;10.670;2022-12-16T03:20:25;9.48;;;8.80;;
10489;SDS011;35569;48.402;10.670;2022-12-16T03:21:01;10.10;;;9.45;;
10489;SDS011;35569;48.402;10.670;2022-12-16T03:21:37;10.13;;;9.43;;
10489;SDS011;35569;48.402;10.670;2022-12-16T03:22:15;9.60;;;8.90;;
10489;SDS011;35569;48.402;10.670;2022-12-16T03:22:53;10.03;;;9.33;;
10489;SDS011;35569;48.402;10.670;2022-12-16T03:23:26;10.48;;;9.57;;
10489;SDS011;35569;48.402;10.670;2022-12-16T03:24:04;9.90;;;9.07;;
10489;SDS011;35569;48.402;10.670;2022-12-16T03:24:41;9.93;;;9.20;;
10489;SDS011;35569;48.402;10.670;2022-12-16T03:25:14;10.30;;;9.47;;
10489;SDS011;35569;48.402;10.670;2022-12-16T03:25:47;9.20;;;8.60;;
10489;SDS011;35569;48.402;10.670;2022-12-16T03:26:20;10.47;;;9.70;;
10489;SDS011;35569;48.402;10.670;2022-12-16T03:27:00;11.13;;;10.13;;
10489;SDS011;35569;48.402;10.670;2022-12-16T03:27:38;11.67;;;10.77;;
10489;SDS011;35569;48.402;10.670;2022-12-16T03:28:16;10.80;;;9.80;;
10489;SDS011;35569;48.402;10.670;2022-12-16T03:28:58;10.73;;;9.82;;
10489;SDS011;35569;48.402;10.670;2022-12-16T03:29:35;10.50;;;9.70;;
10489;SDS011;35569;48.402;10.670;2022-12-16T03:30:10;11.43;;;10.48;;
10489;SDS011;35569;48.402;10.670;2022-12-16T03:30:48;11.98;;;11.07;;
10489;SDS011;35569;48.402;10.670;2022-12-16T03:31:29;10.40;;;9.50;;
10489;SDS011;35569;48.402;10.670;2022-12-16T03:32:08;10.18;;;9.48;;
10489;SDS011;35569;48.402;10.670;2022-12-16T03:32:45;11.40;;;10.32;;
10489;SDS011;35569;48.402;10.670;2022-12-16T03:33:20;11.43;;;10.52;;